sensor_id;sensor_type;location;lat;lon;timestamp;P1;durP1;ratioP1;P2;durP2;ratioP2
73632;SDS011;61927;50.080;14.418;2023-12-07T00:01:19;63.40;;;31.48;;
73632;SDS011;61927;50.080;14.418;2023-12-07T00:03:45;70.43;;;33.15;;
73632;SDS011;61927;50.080;14.418;2023-12-07T00:06:10;65.78;;;33.92;;
73632;SDS011;61927;50.080;14.418;2023-12-07T00:08:36;76.93;;;37.78;;
73632;SDS011;61927;50.080;14.418;2023-12-07T00:11:01;72.78;;;35.20;;
73632;SDS011;61927;50.080;14.418;2023-12-07T00:13:27;70.10;;;34.92;;
73632;SDS011;61927;50.080;14.418;2023-12-07T00:15:52;62.22;;;30.92;;
73632;SDS011;61927;50.080;14.418;2023-12-07T00:18:18;68.05;;;34.20;;
73632;SDS011;61927;50.080;14.418;2023-12-07T00:20:44;57.65;;;32.00;;
73632;SDS011;61927;50.080;14.418;2023-12-07T00:23:10;57.17;;;31.80;;
73632;SDS011;61927;50.080;14.418;2023-12-07T00:25:36;55.58;;;29.50;;
73632;SDS011;61927;50.080;14.418;2023-12-07T00:28:02;65.35;;;33.25;;
73632;SDS011;61927;50.080;14.418;2023-12-07T00:30:28;56.50;;;28.67;;
73632;SDS011;61927;50.080;14.418;2023-12-07T00:32:54;46.40;;;23.85;;
73632;SDS011;61927;50.080;14.418;2023-12-07T00:35:19;31.20;;;17.67;;
73632;SDS011;61927;50.080;14.418;2023-12-07T00:37:47;34.72;;;17.17;;
73632;SDS011;61927;50.080;14.418;2023-12-07T00:40:13;37.53;;;20.25;;
73632;SDS011;61927;50.080;14.418;2023-12-07T00:42:39;27.02;;;15.60;;
73632;SDS011;61927;50.080;14.418;2023-12-07T00:45:05;34.28;;;19.60;;
73632;SDS011;61927;50.080;14.418;2023-12-07T00:47:31;25.30;;;13.65;;
73632;SDS011;61927;50.080;14.418;2023-12-07T00:49:57;23.45;;;14.73;;
73632;SDS011;61927;50.080;14.418;2023-12-07T00:52:22;23.08;;;12.45;;
73632;SDS011;61927;50.080;14.418;2023-12-07T00:54:48;20.33;;;11.45;;
73632;SDS011;61927;50.080;14.418;2023-12-07T00:57:14;17.25;;;11.05;;
73632;SDS011;61927;50.080;14.418;2023-12-07T00:59:39;20.30;;;11.05;;
73632;SDS011;61927;50.080;14.418;2023-12-07T01:02:06;19.48;;;10.98;;
73632;SDS011;61927;50.080;14.418;2023-12-07T01:04:32;16.52;;;10.52;;
73632;SDS011;61927;50.080;14.418;2023-12-07T01:06:58;19.45;;;10.05;;
73632;SDS011;61927;50.080;14.418;2023-12-07T01:09:25;13.68;;;9.43;;
73632;SDS011;61927;50.080;14.418;2023-12-07T01:11:51;15.93;;;8.85;;
73632;SDS011;61927;50.080;14.418;2023-12-07T01:14:17;12.13;;;8.10;;
73632;SDS011;61927;50.080;14.418;2023-12-07T01:16:43;15.07;;;9.48;;
73632;SDS011;61927;50.080;14.418;2023-12-07T01:19:09;11.52;;;8.65;;
73632;SDS011;61927;50.080;14.418;2023-12-07T01:21:40;19.35;;;10.90;;
73632;SDS011;61927;50.080;14.418;2023-12-07T01:24:06;13.75;;;8.70;;
73632;SDS011;61927;50.080;14.418;2023-12-07T01:26:32;16.58;;;9.63;;
73632;SDS011;61927;50.080;14.418;2023-12-07T01:28:58;13.80;;;8.00;;
73632;SDS011;61927;50.080;14.418;2023-12-07T01:31:24;16.40;;;8.60;;
73632;SDS011;61927;50.080;14.418;2023-12-07T01:33:49;14.52;;;8.23;;
73632;SDS011;61927;50.080;14.418;2023-12-07T01:36:15;10.73;;;7.45;;
73632;SDS011;61927;50.080;14.418;2023-12-07T01:38:40;11.75;;;7.95;;
73632;SDS011;61927;50.080;14.418;2023-12-07T01:41:06;14.68;;;8.48;;
73632;SDS011;61927;50.080;14.418;2023-12-07T01:43:31;12.70;;;9.02;;
73632;SDS011;61927;50.080;14.418;2023-12-07T01:45:57;16.50;;;8.50;;
73632;SDS011;61927;50.080;14.418;2023-12-07T01:48:23;15.07;;;8.40;;
73632;SDS011;61927;50.080;14.418;2023-12-07T01:50:52;10.40;;;8.07;;
73632;SDS011;61927;50.080;14.418;2023-12-07T01:53:19;13.35;;;8.60;;
73632;SDS011;61927;50.080;14.418;2023-12-07T01:55:48;11.93;;;7.72;;
73632;SDS011;61927;50.080;14.418;2023-12-07T01:58:15;13.80;;;7.93;;
73632;SDS011;61927;50.080;14.418;2023-12-07T02:00:43;11.48;;;8.32;;
73632;SDS011;61927;50.080;14.418;2023-12-07T02:03:08;12.52;;;8.18;;
73632;SDS011;61927;50.080;14.418;2023-12-07T02:05:34;12.30;;;8.50;;
73632;SDS011;61927;50.080;14.418;2023-12-07T02:08:01;12.32;;;8.25;;
73632;SDS011;61927;50.080;14.418;2023-12-07T02:10:27;16.80;;;8.60;;
73632;SDS011;61927;50.080;14.418;2023-12-07T02:12:53;10.63;;;8.18;;
73632;SDS011;61927;50.080;14.418;2023-12-07T02:15:19;10.93;;;8.30;;
73632;SDS011;61927;50.080;14.418;2023-12-07T02:23:29;8.63;;;7.50;;
73632;SDS011;61927;50.080;14.418;2023-12-07T02:25:57;9.18;;;7.10;;
73632;SDS011;61927;50.080;14.418;2023-12-07T02:28:28;11.02;;;7.47;;
73632;SDS011;61927;50.080;14.418;2023-12-07T02:30:54;11.30;;;7.70;;
73632;SDS011;61927;50.080;14.418;2023-12-07T02:33:20;10.27;;;7.57;;
73632;SDS011;61927;50.080;14.418;2023-12-07T02:35:46;14.93;;;7.68;;
73632;SDS011;61927;50.080;14.418;2023-12-07T02:38:11;10.88;;;7.15;;
73632;SDS011;61927;50.080;14.418;2023-12-07T02:40:38;12.70;;;6.38;;
73632;SDS011;61927;50.080;14.418;2023-12-07T02:43:05;7.53;;;6.45;;
73632;SDS011;61927;50.080;14.418;2023-12-07T02:45:31;8.00;;;6.47;;
73632;SDS011;61927;50.080;14.418;2023-12-07T02:47:58;8.23;;;6.95;;
73632;SDS011;61927;50.080;14.418;2023-12-07T02:50:24;11.32;;;8.38;;
73632;SDS011;61927;50.080;14.418;2023-12-07T02:52:49;10.48;;;7.18;;
73632;SDS011;61927;50.080;14.418;2023-12-07T02:55:15;7.43;;;6.30;;
73632;SDS011;61927;50.080;14.418;2023-12-07T02:57:41;7.72;;;6.60;;
73632;SDS011;61927;50.080;14.418;2023-12-07T03:00:07;7.00;;;6.30;;
73632;SDS011;61927;50.080;14.418;2023-12-07T03:02:36;7.47;;;6.10;;
73632;SDS011;61927;50.080;14.418;2023-12-07T03:05:04;7.20;;;6.50;;
73632;SDS011;61927;50.080;14.418;2023-12-07T03:07:31;7.00;;;5.43;;
73632;SDS011;61927;50.080;14.418;2023-12-07T03:09:57;8.73;;;6.20;;
73632;SDS011;61927;50.080;14.418;2023-12-07T03:12:22;9.77;;;6.97;;
73632;SDS011;61927;50.080;14.418;2023-12-07T03:14:51;8.35;;;6.28;;
73632;SDS011;61927;50.080;14.418;2023-12-07T03:17:16;7.50;;;6.32;;
73632;SDS011;61927;50.080;14.418;2023-12-07T03:19:42;8.10;;;6.00;;
73632;SDS011;61927;50.080;14.418;2023-12-07T03:22:08;7.95;;;7.15;;
73632;SDS011;61927;50.080;14.418;2023-12-07T03:24:34;6.55;;;5.88;;
73632;SDS011;61927;50.080;14.418;2023-12-07T03:27:01;6.60;;;6.00;;
73632;SDS011;61927;50.080;14.418;2023-12-07T03:29:26;7.65;;;6.53;;
73632;SDS011;61927;50.080;14.418;2023-12-07T03:31:52;8.40;;;6.68;;
73632;SDS011;61927;50.080;14.418;2023-12-07T03:34:18;7.35;;;6.60;;
73632;SDS011;61927;50.080;14.418;2023-12-07T03:36:47;9.10;;;6.82;;
73632;SDS011;61927;50.080;14.418;2023-12-07T03:39:14;6.95;;;6.25;;
73632;SDS011;61927;50.080;14.418;2023-12-07T03:41:40;11.13;;;6.75;;
73632;SDS011;61927;50.080;14.418;2023-12-07T03:44:06;7.22;;;6.53;;
73632;SDS011;61927;50.080;14.418;2023-12-07T03:46:32;7.72;;;6.50;;
73632;SDS011;61927;50.080;14.418;2023-12-07T03:48:58;11.18;;;6.93;;
73632;SDS011;61927;50.080;14.418;2023-12-07T03:51:26;7.65;;;6.85;;
73632;SDS011;61927;50.080;14.418;2023-12-07T03:53:52;8.77;;;6.65;;
73632;SDS011;61927;50.080;14.418;2023-12-07T03:56:24;10.27;;;6.88;;
73632;SDS011;61927;50.080;14.418;2023-12-07T03:58:51;7.28;;;6.40;;
73632;SDS011;61927;50.080;14.418;2023-12-07T04:01:16;8.25;;;6.72;;
73632;SDS011;61927;50.080;14.418;2023-12-07T04:03:42;10.88;;;6.90;;
73632;SDS011;61927;50.080;14.418;2023-12-07T04:06:08;8.32;;;7.00;;
73632;SDS011;61927;50.080;14.418;2023-12-07T04:08:34;12.45;;;6.55;;
73632;SDS011;61927;50.080;14.418;2023-12-07T04:11:00;8.02;;;7.00;;
73632;SDS011;61927;50.080;14.418;2023-12-07T04:13:25;8.60;;;6.88;;
73632;SDS011;61927;50.080;14.418;2023-12-07T04:15:51;9.98;;;7.25;;
73632;SDS011;61927;50.080;14.418;2023-12-07T04:18:17;10.07;;;6.72;;
73632;SDS011;61927;50.080;14.418;2023-12-07T04:20:42;9.07;;;6.90;;
73632;SDS011;61927;50.080;14.418;2023-12-07T04:23:08;8.52;;;7.18;;
73632;SDS011;61927;50.080;14.418;2023-12-07T04:25:34;10.40;;;7.57;;
73632;SDS011;61927;50.080;14.418;2023-12-07T04:27:59;9.45;;;7.32;;
73632;SDS011;61927;50.080;14.418;2023-12-07T04:30:25;12.25;;;8.30;;
73632;SDS011;61927;50.080;14.418;2023-12-07T04:32:51;14.18;;;10.85;;
73632;SDS011;61927;50.080;14.418;2023-12-07T04:35:16;12.68;;;7.85;;
73632;SDS011;61927;50.080;14.418;2023-12-07T04:37:42;11.00;;;7.90;;
73632;SDS011;61927;50.080;14.418;2023-12-07T04:40:07;10.95;;;7.95;;
73632;SDS011;61927;50.080;14.418;2023-12-07T04:42:34;10.55;;;7.90;;
73632;SDS011;61927;50.080;14.418;2023-12-07T04:44:59;12.30;;;7.78;;
73632;SDS011;61927;50.080;14.418;2023-12-07T04:47:25;10.05;;;7.20;;
73632;SDS011;61927;50.080;14.418;2023-12-07T04:49:50;8.63;;;6.78;;
73632;SDS011;61927;50.080;14.418;2023-12-07T04:52:16;9.50;;;7.15;;
73632;SDS011;61927;50.080;14.418;2023-12-07T04:54:41;10.13;;;7.85;;
73632;SDS011;61927;50.080;14.418;2023-12-07T04:57:07;8.02;;;7.18;;
73632;SDS011;61927;50.080;14.418;2023-12-07T04:59:33;10.13;;;7.80;;
73632;SDS011;61927;50.080;14.418;2023-12-07T05:02:00;10.05;;;7.50;;
73632;SDS011;61927;50.080;14.418;2023-12-07T05:04:25;10.50;;;7.25;;
73632;SDS011;61927;50.080;14.418;2023-12-07T05:06:51;8.52;;;7.05;;
73632;SDS011;61927;50.080;14.418;2023-12-07T05:09:16;9.85;;;7.28;;
73632;SDS011;61927;50.080;14.418;2023-12-07T05:11:42;11.57;;;7.88;;
73632;SDS011;61927;50.080;14.418;2023-12-07T05:14:10;8.32;;;7.43;;
73632;SDS011;61927;50.080;14.418;2023-12-07T05:16:36;10.15;;;7.63;;
73632;SDS011;61927;50.080;14.418;2023-12-07T05:19:01;9.20;;;7.45;;
73632;SDS011;61927;50.080;14.418;2023-12-07T05:21:28;10.43;;;7.55;;
73632;SDS011;61927;50.080;14.418;2023-12-07T05:23:53;10.85;;;7.50;;
73632;SDS011;61927;50.080;14.418;2023-12-07T05:26:19;9.27;;;7.25;;
73632;SDS011;61927;50.080;14.418;2023-12-07T05:28:46;11.32;;;8.07;;
73632;SDS011;61927;50.080;14.418;2023-12-07T05:31:15;10.80;;;7.65;;
73632;SDS011;61927;50.080;14.418;2023-12-07T05:33:44;10.00;;;7.60;;
73632;SDS011;61927;50.080;14.418;2023-12-07T05:36:10;21.63;;;9.00;;
73632;SDS011;61927;50.080;14.418;2023-12-07T05:38:35;11.88;;;8.10;;
73632;SDS011;61927;50.080;14.418;2023-12-07T05:41:01;35.28;;;21.15;;
73632;SDS011;61927;50.080;14.418;2023-12-07T05:43:26;11.18;;;8.32;;
73632;SDS011;61927;50.080;14.418;2023-12-07T05:45:52;12.95;;;7.97;;
73632;SDS011;61927;50.080;14.418;2023-12-07T05:48:17;20.33;;;10.73;;
73632;SDS011;61927;50.080;14.418;2023-12-07T05:50:43;12.27;;;7.93;;
73632;SDS011;61927;50.080;14.418;2023-12-07T05:53:09;13.60;;;7.97;;
73632;SDS011;61927;50.080;14.418;2023-12-07T05:55:34;15.30;;;8.35;;
73632;SDS011;61927;50.080;14.418;2023-12-07T05:58:00;13.73;;;9.27;;
73632;SDS011;61927;50.080;14.418;2023-12-07T06:00:25;11.00;;;8.13;;
73632;SDS011;61927;50.080;14.418;2023-12-07T06:02:51;13.80;;;7.28;;
73632;SDS011;61927;50.080;14.418;2023-12-07T06:05:17;11.48;;;8.02;;
73632;SDS011;61927;50.080;14.418;2023-12-07T06:07:43;10.18;;;7.25;;
73632;SDS011;61927;50.080;14.418;2023-12-07T06:10:08;16.65;;;8.25;;
73632;SDS011;61927;50.080;14.418;2023-12-07T06:12:34;9.35;;;7.53;;
73632;SDS011;61927;50.080;14.418;2023-12-07T06:15:00;10.50;;;7.63;;
73632;SDS011;61927;50.080;14.418;2023-12-07T06:17:25;11.05;;;7.60;;
73632;SDS011;61927;50.080;14.418;2023-12-07T06:19:51;28.92;;;20.33;;
73632;SDS011;61927;50.080;14.418;2023-12-07T06:22:17;7.82;;;7.03;;
73632;SDS011;61927;50.080;14.418;2023-12-07T06:24:42;12.57;;;7.72;;
73632;SDS011;61927;50.080;14.418;2023-12-07T06:27:08;9.45;;;7.85;;
73632;SDS011;61927;50.080;14.418;2023-12-07T06:29:35;11.52;;;8.27;;
73632;SDS011;61927;50.080;14.418;2023-12-07T06:32:00;11.70;;;7.60;;
73632;SDS011;61927;50.080;14.418;2023-12-07T06:34:26;12.27;;;8.38;;
73632;SDS011;61927;50.080;14.418;2023-12-07T06:36:53;13.05;;;8.40;;
73632;SDS011;61927;50.080;14.418;2023-12-07T06:39:19;10.70;;;8.18;;
73632;SDS011;61927;50.080;14.418;2023-12-07T06:41:44;12.27;;;9.35;;
73632;SDS011;61927;50.080;14.418;2023-12-07T06:44:10;14.80;;;8.75;;
73632;SDS011;61927;50.080;14.418;2023-12-07T06:46:35;11.45;;;7.85;;
73632;SDS011;61927;50.080;14.418;2023-12-07T06:49:01;13.52;;;8.30;;
73632;SDS011;61927;50.080;14.418;2023-12-07T06:51:27;11.65;;;7.75;;
73632;SDS011;61927;50.080;14.418;2023-12-07T06:53:52;13.00;;;8.35;;
73632;SDS011;61927;50.080;14.418;2023-12-07T06:56:18;12.20;;;8.23;;
73632;SDS011;61927;50.080;14.418;2023-12-07T06:58:44;13.13;;;8.63;;
73632;SDS011;61927;50.080;14.418;2023-12-07T07:01:09;11.93;;;8.32;;
73632;SDS011;61927;50.080;14.418;2023-12-07T07:03:35;11.45;;;8.70;;
73632;SDS011;61927;50.080;14.418;2023-12-07T07:06:01;14.38;;;8.88;;
73632;SDS011;61927;50.080;14.418;2023-12-07T07:08:26;12.65;;;8.85;;
73632;SDS011;61927;50.080;14.418;2023-12-07T07:10:52;11.00;;;8.45;;
73632;SDS011;61927;50.080;14.418;2023-12-07T07:13:17;14.30;;;8.50;;
73632;SDS011;61927;50.080;14.418;2023-12-07T07:15:45;9.73;;;8.05;;
73632;SDS011;61927;50.080;14.418;2023-12-07T07:18:11;11.45;;;8.77;;
73632;SDS011;61927;50.080;14.418;2023-12-07T07:20:37;18.73;;;10.63;;
73632;SDS011;61927;50.080;14.418;2023-12-07T07:23:03;16.80;;;8.57;;
73632;SDS011;61927;50.080;14.418;2023-12-07T07:25:28;36.55;;;20.95;;
73632;SDS011;61927;50.080;14.418;2023-12-07T07:27:54;13.23;;;8.27;;
73632;SDS011;61927;50.080;14.418;2023-12-07T07:30:20;13.80;;;9.02;;
73632;SDS011;61927;50.080;14.418;2023-12-07T07:32:46;10.88;;;8.38;;
73632;SDS011;61927;50.080;14.418;2023-12-07T07:35:12;11.40;;;8.52;;
73632;SDS011;61927;50.080;14.418;2023-12-07T07:37:38;13.82;;;9.70;;
73632;SDS011;61927;50.080;14.418;2023-12-07T07:40:04;16.42;;;8.82;;
73632;SDS011;61927;50.080;14.418;2023-12-07T07:42:34;13.50;;;8.75;;
73632;SDS011;61927;50.080;14.418;2023-12-07T07:45:00;17.17;;;9.32;;
73632;SDS011;61927;50.080;14.418;2023-12-07T07:47:26;14.20;;;8.95;;
73632;SDS011;61927;50.080;14.418;2023-12-07T07:49:51;17.58;;;9.30;;
73632;SDS011;61927;50.080;14.418;2023-12-07T07:52:17;13.85;;;8.73;;
73632;SDS011;61927;50.080;14.418;2023-12-07T07:54:43;16.75;;;9.82;;
73632;SDS011;61927;50.080;14.418;2023-12-07T07:57:08;22.23;;;9.88;;
73632;SDS011;61927;50.080;14.418;2023-12-07T07:59:34;17.70;;;10.73;;
73632;SDS011;61927;50.080;14.418;2023-12-07T08:02:00;17.08;;;12.00;;
73632;SDS011;61927;50.080;14.418;2023-12-07T08:04:25;17.05;;;11.32;;
73632;SDS011;61927;50.080;14.418;2023-12-07T08:06:51;19.27;;;11.50;;
73632;SDS011;61927;50.080;14.418;2023-12-07T08:09:16;21.77;;;11.05;;
73632;SDS011;61927;50.080;14.418;2023-12-07T08:11:42;22.98;;;11.25;;
73632;SDS011;61927;50.080;14.418;2023-12-07T08:14:08;26.10;;;13.93;;
73632;SDS011;61927;50.080;14.418;2023-12-07T08:16:34;19.92;;;11.60;;
73632;SDS011;61927;50.080;14.418;2023-12-07T08:19:00;21.00;;;11.80;;
73632;SDS011;61927;50.080;14.418;2023-12-07T08:21:25;15.95;;;11.07;;
73632;SDS011;61927;50.080;14.418;2023-12-07T08:23:51;13.98;;;10.68;;
73632;SDS011;61927;50.080;14.418;2023-12-07T08:26:17;18.23;;;11.80;;
73632;SDS011;61927;50.080;14.418;2023-12-07T08:28:43;13.73;;;10.45;;
73632;SDS011;61927;50.080;14.418;2023-12-07T08:31:09;15.40;;;10.18;;
73632;SDS011;61927;50.080;14.418;2023-12-07T08:33:36;14.57;;;10.43;;
73632;SDS011;61927;50.080;14.418;2023-12-07T08:36:03;22.02;;;10.55;;
73632;SDS011;61927;50.080;14.418;2023-12-07T08:38:29;13.27;;;9.73;;
73632;SDS011;61927;50.080;14.418;2023-12-07T08:40:55;15.23;;;10.52;;
73632;SDS011;61927;50.080;14.418;2023-12-07T08:43:21;25.98;;;11.00;;
73632;SDS011;61927;50.080;14.418;2023-12-07T08:45:50;18.80;;;10.20;;
73632;SDS011;61927;50.080;14.418;2023-12-07T08:48:17;19.17;;;11.23;;
73632;SDS011;61927;50.080;14.418;2023-12-07T08:50:44;19.33;;;11.07;;
73632;SDS011;61927;50.080;14.418;2023-12-07T08:53:09;16.52;;;10.38;;
73632;SDS011;61927;50.080;14.418;2023-12-07T08:55:35;14.80;;;11.23;;
73632;SDS011;61927;50.080;14.418;2023-12-07T08:58:01;14.00;;;9.90;;
73632;SDS011;61927;50.080;14.418;2023-12-07T09:00:30;15.00;;;10.25;;
73632;SDS011;61927;50.080;14.418;2023-12-07T09:02:57;17.23;;;11.02;;
73632;SDS011;61927;50.080;14.418;2023-12-07T09:05:22;12.88;;;10.10;;
73632;SDS011;61927;50.080;14.418;2023-12-07T09:07:48;20.05;;;10.52;;
73632;SDS011;61927;50.080;14.418;2023-12-07T09:10:14;15.45;;;10.20;;
73632;SDS011;61927;50.080;14.418;2023-12-07T09:12:39;18.77;;;10.95;;
73632;SDS011;61927;50.080;14.418;2023-12-07T09:15:06;15.43;;;10.32;;
73632;SDS011;61927;50.080;14.418;2023-12-07T09:17:32;12.98;;;9.50;;
73632;SDS011;61927;50.080;14.418;2023-12-07T09:19:59;16.23;;;10.93;;
73632;SDS011;61927;50.080;14.418;2023-12-07T09:22:25;14.18;;;10.77;;
73632;SDS011;61927;50.080;14.418;2023-12-07T09:24:50;13.43;;;10.68;;
73632;SDS011;61927;50.080;14.418;2023-12-07T09:27:16;13.68;;;10.18;;
73632;SDS011;61927;50.080;14.418;2023-12-07T09:29:42;13.60;;;9.98;;
73632;SDS011;61927;50.080;14.418;2023-12-07T09:32:07;21.25;;;10.77;;
73632;SDS011;61927;50.080;14.418;2023-12-07T09:34:33;15.05;;;11.15;;
73632;SDS011;61927;50.080;14.418;2023-12-07T09:37:06;17.30;;;11.38;;
73632;SDS011;61927;50.080;14.418;2023-12-07T09:39:32;18.27;;;11.63;;
73632;SDS011;61927;50.080;14.418;2023-12-07T09:41:58;27.90;;;12.60;;
73632;SDS011;61927;50.080;14.418;2023-12-07T09:44:24;18.13;;;11.98;;
73632;SDS011;61927;50.080;14.418;2023-12-07T09:46:49;20.30;;;11.43;;
73632;SDS011;61927;50.080;14.418;2023-12-07T09:49:16;20.65;;;12.27;;
73632;SDS011;61927;50.080;14.418;2023-12-07T09:51:42;24.60;;;11.93;;
73632;SDS011;61927;50.080;14.418;2023-12-07T09:54:09;16.73;;;11.55;;
73632;SDS011;61927;50.080;14.418;2023-12-07T09:56:36;20.65;;;10.73;;
73632;SDS011;61927;50.080;14.418;2023-12-07T09:59:01;28.67;;;12.65;;
73632;SDS011;61927;50.080;14.418;2023-12-07T10:01:30;22.13;;;13.90;;
73632;SDS011;61927;50.080;14.418;2023-12-07T10:04:14;24.08;;;13.95;;
73632;SDS011;61927;50.080;14.418;2023-12-07T10:06:55;25.13;;;12.90;;
73632;SDS011;61927;50.080;14.418;2023-12-07T10:09:21;19.55;;;13.35;;
73632;SDS011;61927;50.080;14.418;2023-12-07T10:11:47;21.17;;;15.02;;
73632;SDS011;61927;50.080;14.418;2023-12-07T10:14:13;21.90;;;13.93;;
73632;SDS011;61927;50.080;14.418;2023-12-07T10:16:40;19.45;;;13.05;;
73632;SDS011;61927;50.080;14.418;2023-12-07T10:19:18;31.10;;;16.60;;
73632;SDS011;61927;50.080;14.418;2023-12-07T10:21:50;23.20;;;14.40;;
73632;SDS011;61927;50.080;14.418;2023-12-07T10:24:18;23.00;;;13.80;;
73632;SDS011;61927;50.080;14.418;2023-12-07T10:26:45;31.15;;;14.00;;
73632;SDS011;61927;50.080;14.418;2023-12-07T10:29:11;21.98;;;13.55;;
73632;SDS011;61927;50.080;14.418;2023-12-07T10:31:38;24.23;;;14.57;;
73632;SDS011;61927;50.080;14.418;2023-12-07T10:34:04;21.17;;;13.90;;
73632;SDS011;61927;50.080;14.418;2023-12-07T10:36:30;24.60;;;13.98;;
73632;SDS011;61927;50.080;14.418;2023-12-07T10:38:58;19.40;;;13.45;;
73632;SDS011;61927;50.080;14.418;2023-12-07T10:41:24;92.82;;;47.97;;
73632;SDS011;61927;50.080;14.418;2023-12-07T10:43:54;32.35;;;13.95;;
73632;SDS011;61927;50.080;14.418;2023-12-07T10:46:24;28.08;;;15.57;;
73632;SDS011;61927;50.080;14.418;2023-12-07T10:48:55;32.65;;;15.45;;
73632;SDS011;61927;50.080;14.418;2023-12-07T10:51:41;33.10;;;15.23;;
73632;SDS011;61927;50.080;14.418;2023-12-07T10:54:08;32.70;;;16.73;;
73632;SDS011;61927;50.080;14.418;2023-12-07T10:56:40;22.15;;;14.73;;
73632;SDS011;61927;50.080;14.418;2023-12-07T10:59:09;24.90;;;15.20;;
73632;SDS011;61927;50.080;14.418;2023-12-07T11:01:39;22.77;;;14.20;;
73632;SDS011;61927;50.080;14.418;2023-12-07T11:04:06;30.88;;;17.58;;
73632;SDS011;61927;50.080;14.418;2023-12-07T11:06:35;31.80;;;18.35;;
73632;SDS011;61927;50.080;14.418;2023-12-07T11:09:03;29.02;;;14.35;;
73632;SDS011;61927;50.080;14.418;2023-12-07T11:13:59;23.73;;;13.85;;
73632;SDS011;61927;50.080;14.418;2023-12-07T11:16:32;20.95;;;12.85;;
73632;SDS011;61927;50.080;14.418;2023-12-07T11:19:02;18.38;;;10.68;;
73632;SDS011;61927;50.080;14.418;2023-12-07T11:21:28;21.48;;;14.13;;
73632;SDS011;61927;50.080;14.418;2023-12-07T11:23:54;16.38;;;10.65;;
73632;SDS011;61927;50.080;14.418;2023-12-07T11:26:20;17.30;;;10.50;;
73632;SDS011;61927;50.080;14.418;2023-12-07T11:28:48;16.40;;;12.27;;
73632;SDS011;61927;50.080;14.418;2023-12-07T11:31:14;21.98;;;10.90;;
73632;SDS011;61927;50.080;14.418;2023-12-07T11:33:41;15.35;;;10.38;;
73632;SDS011;61927;50.080;14.418;2023-12-07T11:36:07;14.77;;;10.45;;
73632;SDS011;61927;50.080;14.418;2023-12-07T11:38:37;15.88;;;10.20;;
73632;SDS011;61927;50.080;14.418;2023-12-07T11:41:04;15.32;;;10.63;;
73632;SDS011;61927;50.080;14.418;2023-12-07T11:45:58;18.90;;;11.30;;
73632;SDS011;61927;50.080;14.418;2023-12-07T11:48:25;18.08;;;12.10;;
73632;SDS011;61927;50.080;14.418;2023-12-07T11:53:29;18.88;;;10.05;;
73632;SDS011;61927;50.080;14.418;2023-12-07T11:56:00;15.77;;;10.10;;
73632;SDS011;61927;50.080;14.418;2023-12-07T12:00:57;15.95;;;8.95;;
73632;SDS011;61927;50.080;14.418;2023-12-07T12:03:24;14.60;;;9.18;;
73632;SDS011;61927;50.080;14.418;2023-12-07T12:05:52;15.85;;;10.15;;
73632;SDS011;61927;50.080;14.418;2023-12-07T12:08:19;14.70;;;9.93;;
73632;SDS011;61927;50.080;14.418;2023-12-07T12:10:48;16.98;;;10.95;;
73632;SDS011;61927;50.080;14.418;2023-12-07T12:13:15;18.52;;;10.27;;
73632;SDS011;61927;50.080;14.418;2023-12-07T12:15:42;13.77;;;9.32;;
73632;SDS011;61927;50.080;14.418;2023-12-07T12:18:09;19.88;;;10.15;;
73632;SDS011;61927;50.080;14.418;2023-12-07T12:20:35;16.40;;;10.77;;
73632;SDS011;61927;50.080;14.418;2023-12-07T12:23:02;16.80;;;10.38;;
73632;SDS011;61927;50.080;14.418;2023-12-07T12:25:28;12.40;;;9.02;;
73632;SDS011;61927;50.080;14.418;2023-12-07T12:27:59;13.80;;;10.20;;
73632;SDS011;61927;50.080;14.418;2023-12-07T12:30:28;14.95;;;10.43;;
73632;SDS011;61927;50.080;14.418;2023-12-07T12:32:55;17.17;;;10.40;;
73632;SDS011;61927;50.080;14.418;2023-12-07T12:35:22;11.68;;;8.95;;
73632;SDS011;61927;50.080;14.418;2023-12-07T12:37:49;29.05;;;12.85;;
73632;SDS011;61927;50.080;14.418;2023-12-07T12:40:18;18.50;;;8.80;;
73632;SDS011;61927;50.080;14.418;2023-12-07T12:42:46;13.77;;;8.70;;
73632;SDS011;61927;50.080;14.418;2023-12-07T12:45:16;13.43;;;8.38;;
73632;SDS011;61927;50.080;14.418;2023-12-07T12:47:44;18.25;;;8.98;;
73632;SDS011;61927;50.080;14.418;2023-12-07T12:50:11;18.88;;;10.63;;
73632;SDS011;61927;50.080;14.418;2023-12-07T12:52:58;10.98;;;8.38;;
73632;SDS011;61927;50.080;14.418;2023-12-07T12:55:25;10.65;;;8.00;;
73632;SDS011;61927;50.080;14.418;2023-12-07T12:57:51;15.10;;;8.75;;
73632;SDS011;61927;50.080;14.418;2023-12-07T13:00:17;11.65;;;8.48;;
73632;SDS011;61927;50.080;14.418;2023-12-07T13:02:45;11.20;;;8.20;;
73632;SDS011;61927;50.080;14.418;2023-12-07T13:05:10;13.07;;;8.23;;
73632;SDS011;61927;50.080;14.418;2023-12-07T13:07:37;13.85;;;9.52;;
73632;SDS011;61927;50.080;14.418;2023-12-07T13:10:03;11.88;;;9.13;;
73632;SDS011;61927;50.080;14.418;2023-12-07T13:12:29;12.45;;;8.05;;
73632;SDS011;61927;50.080;14.418;2023-12-07T13:14:59;15.25;;;9.45;;
73632;SDS011;61927;50.080;14.418;2023-12-07T13:17:25;16.35;;;7.68;;
73632;SDS011;61927;50.080;14.418;2023-12-07T13:19:51;12.32;;;8.10;;
73632;SDS011;61927;50.080;14.418;2023-12-07T13:22:17;9.20;;;7.07;;
73632;SDS011;61927;50.080;14.418;2023-12-07T13:24:43;14.27;;;9.68;;
73632;SDS011;61927;50.080;14.418;2023-12-07T13:27:11;13.63;;;7.90;;
73632;SDS011;61927;50.080;14.418;2023-12-07T13:29:36;13.20;;;7.82;;
73632;SDS011;61927;50.080;14.418;2023-12-07T13:32:03;13.70;;;7.80;;
73632;SDS011;61927;50.080;14.418;2023-12-07T13:34:29;10.35;;;7.15;;
73632;SDS011;61927;50.080;14.418;2023-12-07T13:36:56;9.05;;;7.15;;
73632;SDS011;61927;50.080;14.418;2023-12-07T13:39:21;9.38;;;6.70;;
73632;SDS011;61927;50.080;14.418;2023-12-07T13:41:47;10.43;;;7.22;;
73632;SDS011;61927;50.080;14.418;2023-12-07T13:44:15;11.13;;;8.32;;
73632;SDS011;61927;50.080;14.418;2023-12-07T13:46:44;18.13;;;9.13;;
73632;SDS011;61927;50.080;14.418;2023-12-07T13:49:10;13.43;;;8.55;;
73632;SDS011;61927;50.080;14.418;2023-12-07T13:51:40;11.98;;;8.23;;
73632;SDS011;61927;50.080;14.418;2023-12-07T13:54:07;17.75;;;8.23;;
73632;SDS011;61927;50.080;14.418;2023-12-07T13:56:34;16.83;;;9.88;;
73632;SDS011;61927;50.080;14.418;2023-12-07T13:59:00;14.27;;;9.07;;
73632;SDS011;61927;50.080;14.418;2023-12-07T14:01:26;14.00;;;8.68;;
73632;SDS011;61927;50.080;14.418;2023-12-07T14:03:52;9.85;;;7.82;;
73632;SDS011;61927;50.080;14.418;2023-12-07T14:06:21;14.40;;;9.30;;
73632;SDS011;61927;50.080;14.418;2023-12-07T14:08:49;22.13;;;8.52;;
73632;SDS011;61927;50.080;14.418;2023-12-07T14:11:15;19.02;;;10.25;;
73632;SDS011;61927;50.080;14.418;2023-12-07T14:13:41;14.40;;;9.52;;
73632;SDS011;61927;50.080;14.418;2023-12-07T14:16:07;20.77;;;10.85;;
73632;SDS011;61927;50.080;14.418;2023-12-07T14:18:33;24.60;;;11.13;;
73632;SDS011;61927;50.080;14.418;2023-12-07T14:20:59;18.70;;;9.60;;
73632;SDS011;61927;50.080;14.418;2023-12-07T14:23:25;22.08;;;11.70;;
73632;SDS011;61927;50.080;14.418;2023-12-07T14:25:51;20.50;;;11.40;;
73632;SDS011;61927;50.080;14.418;2023-12-07T14:28:17;28.48;;;11.90;;
73632;SDS011;61927;50.080;14.418;2023-12-07T14:30:43;18.67;;;11.15;;